sensor_id;sensor_type;location;lat;lon;timestamp;P1;durP1;ratioP1;P2;durP2;ratioP2
52730;SDS011;38624;53.242;6.974;2024-02-26T00:00:04;38.78;;;16.85;;
52730;SDS011;38624;53.242;6.974;2024-02-26T00:02:34;40.23;;;17.90;;
52730;SDS011;38624;53.242;6.974;2024-02-26T00:05:04;42.30;;;18.80;;
52730;SDS011;38624;53.242;6.974;2024-02-26T00:07:30;39.47;;;18.30;;
52730;SDS011;38624;53.242;6.974;2024-02-26T00:09:56;44.20;;;19.43;;
52730;SDS011;38624;53.242;6.974;2024-02-26T00:12:22;43.13;;;19.10;;
52730;SDS011;38624;53.242;6.974;2024-02-26T00:14:48;25.33;;;13.73;;
52730;SDS011;38624;53.242;6.974;2024-02-26T00:17:15;29.42;;;15.45;;
52730;SDS011;38624;53.242;6.974;2024-02-26T00:19:41;31.05;;;15.95;;
52730;SDS011;38624;53.242;6.974;2024-02-26T00:22:07;35.25;;;16.63;;
52730;SDS011;38624;53.242;6.974;2024-02-26T00:24:33;32.37;;;15.83;;
52730;SDS011;38624;53.242;6.974;2024-02-26T00:26:59;34.70;;;17.10;;
52730;SDS011;38624;53.242;6.974;2024-02-26T00:29:25;31.13;;;16.03;;
52730;SDS011;38624;53.242;6.974;2024-02-26T00:31:51;31.23;;;15.93;;
52730;SDS011;38624;53.242;6.974;2024-02-26T00:34:18;32.20;;;16.43;;
52730;SDS011;38624;53.242;6.974;2024-02-26T00:36:44;30.88;;;16.10;;
52730;SDS011;38624;53.242;6.974;2024-02-26T00:39:11;34.77;;;16.23;;
52730;SDS011;38624;53.242;6.974;2024-02-26T00:41:40;30.63;;;16.95;;
52730;SDS011;38624;53.242;6.974;2024-02-26T00:44:06;33.07;;;17.10;;
52730;SDS011;38624;53.242;6.974;2024-02-26T00:46:32;29.58;;;16.20;;
52730;SDS011;38624;53.242;6.974;2024-02-26T00:48:58;36.03;;;17.83;;
52730;SDS011;38624;53.242;6.974;2024-02-26T00:51:25;33.13;;;17.35;;
52730;SDS011;38624;53.242;6.974;2024-02-26T00:53:51;33.07;;;16.50;;
52730;SDS011;38624;53.242;6.974;2024-02-26T00:56:17;33.53;;;16.93;;
52730;SDS011;38624;53.242;6.974;2024-02-26T00:58:43;33.07;;;16.40;;
52730;SDS011;38624;53.242;6.974;2024-02-26T01:01:09;30.20;;;15.83;;
52730;SDS011;38624;53.242;6.974;2024-02-26T01:03:35;29.13;;;14.53;;
52730;SDS011;38624;53.242;6.974;2024-02-26T01:06:02;29.63;;;15.87;;
52730;SDS011;38624;53.242;6.974;2024-02-26T01:08:28;26.40;;;15.80;;
52730;SDS011;38624;53.242;6.974;2024-02-26T01:10:54;28.87;;;16.27;;
52730;SDS011;38624;53.242;6.974;2024-02-26T01:13:20;29.30;;;15.70;;
52730;SDS011;38624;53.242;6.974;2024-02-26T01:15:46;28.23;;;15.80;;
52730;SDS011;38624;53.242;6.974;2024-02-26T01:18:12;25.37;;;15.10;;
52730;SDS011;38624;53.242;6.974;2024-02-26T01:20:38;28.50;;;14.83;;
52730;SDS011;38624;53.242;6.974;2024-02-26T01:23:04;26.77;;;15.17;;
52730;SDS011;38624;53.242;6.974;2024-02-26T01:25:31;26.65;;;15.48;;
52730;SDS011;38624;53.242;6.974;2024-02-26T01:27:57;23.33;;;11.90;;
52730;SDS011;38624;53.242;6.974;2024-02-26T01:30:23;21.50;;;12.50;;
52730;SDS011;38624;53.242;6.974;2024-02-26T01:32:49;25.50;;;13.97;;
52730;SDS011;38624;53.242;6.974;2024-02-26T01:35:15;20.37;;;11.77;;
52730;SDS011;38624;53.242;6.974;2024-02-26T01:37:42;26.17;;;13.70;;
52730;SDS011;38624;53.242;6.974;2024-02-26T01:40:08;22.98;;;12.60;;
52730;SDS011;38624;53.242;6.974;2024-02-26T01:42:34;22.00;;;12.25;;
52730;SDS011;38624;53.242;6.974;2024-02-26T01:45:01;22.30;;;12.70;;
52730;SDS011;38624;53.242;6.974;2024-02-26T01:47:27;21.55;;;13.18;;
52730;SDS011;38624;53.242;6.974;2024-02-26T01:49:53;24.00;;;13.40;;
52730;SDS011;38624;53.242;6.974;2024-02-26T01:52:19;17.03;;;11.00;;
52730;SDS011;38624;53.242;6.974;2024-02-26T01:54:47;16.13;;;9.30;;
52730;SDS011;38624;53.242;6.974;2024-02-26T01:57:13;22.53;;;13.23;;
52730;SDS011;38624;53.242;6.974;2024-02-26T01:59:39;22.00;;;13.18;;
52730;SDS011;38624;53.242;6.974;2024-02-26T02:02:06;17.73;;;10.73;;
52730;SDS011;38624;53.242;6.974;2024-02-26T02:04:34;17.77;;;10.93;;
52730;SDS011;38624;53.242;6.974;2024-02-26T02:07:01;19.35;;;10.95;;
52730;SDS011;38624;53.242;6.974;2024-02-26T02:09:27;14.75;;;9.32;;
52730;SDS011;38624;53.242;6.974;2024-02-26T02:11:54;15.13;;;9.32;;
52730;SDS011;38624;53.242;6.974;2024-02-26T02:14:20;17.45;;;10.38;;
52730;SDS011;38624;53.242;6.974;2024-02-26T02:16:47;13.07;;;8.07;;
52730;SDS011;38624;53.242;6.974;2024-02-26T02:19:13;14.00;;;9.20;;
52730;SDS011;38624;53.242;6.974;2024-02-26T02:21:39;15.48;;;10.30;;
52730;SDS011;38624;53.242;6.974;2024-02-26T02:24:05;12.87;;;8.17;;
52730;SDS011;38624;53.242;6.974;2024-02-26T02:26:31;13.73;;;7.93;;
52730;SDS011;38624;53.242;6.974;2024-02-26T02:28:57;12.77;;;7.83;;
52730;SDS011;38624;53.242;6.974;2024-02-26T02:31:24;14.63;;;7.05;;
52730;SDS011;38624;53.242;6.974;2024-02-26T02:33:50;11.17;;;7.63;;
52730;SDS011;38624;53.242;6.974;2024-02-26T02:36:16;10.23;;;6.83;;
52730;SDS011;38624;53.242;6.974;2024-02-26T02:38:49;13.30;;;7.73;;
52730;SDS011;38624;53.242;6.974;2024-02-26T02:41:16;12.47;;;7.67;;
52730;SDS011;38624;53.242;6.974;2024-02-26T02:43:42;12.10;;;7.40;;
52730;SDS011;38624;53.242;6.974;2024-02-26T02:46:08;19.47;;;7.17;;
52730;SDS011;38624;53.242;6.974;2024-02-26T02:48:36;10.53;;;6.70;;
52730;SDS011;38624;53.242;6.974;2024-02-26T02:51:02;9.50;;;6.23;;
52730;SDS011;38624;53.242;6.974;2024-02-26T02:53:28;13.85;;;8.23;;
52730;SDS011;38624;53.242;6.974;2024-02-26T02:55:54;13.70;;;7.70;;
52730;SDS011;38624;53.242;6.974;2024-02-26T02:58:20;11.23;;;7.50;;
52730;SDS011;38624;53.242;6.974;2024-02-26T03:00:46;14.03;;;7.93;;
52730;SDS011;38624;53.242;6.974;2024-02-26T03:03:12;13.47;;;8.23;;
52730;SDS011;38624;53.242;6.974;2024-02-26T03:05:39;11.40;;;6.97;;
52730;SDS011;38624;53.242;6.974;2024-02-26T03:08:05;11.23;;;7.00;;
52730;SDS011;38624;53.242;6.974;2024-02-26T03:10:31;11.60;;;7.87;;
52730;SDS011;38624;53.242;6.974;2024-02-26T03:12:57;12.27;;;6.80;;
52730;SDS011;38624;53.242;6.974;2024-02-26T03:15:23;11.45;;;7.43;;
52730;SDS011;38624;53.242;6.974;2024-02-26T03:17:49;11.67;;;7.03;;
52730;SDS011;38624;53.242;6.974;2024-02-26T03:20:15;14.90;;;7.93;;
52730;SDS011;38624;53.242;6.974;2024-02-26T03:22:44;12.50;;;7.73;;
52730;SDS011;38624;53.242;6.974;2024-02-26T03:25:10;14.02;;;7.50;;
52730;SDS011;38624;53.242;6.974;2024-02-26T03:27:36;11.63;;;7.47;;
52730;SDS011;38624;53.242;6.974;2024-02-26T03:30:03;9.93;;;5.97;;
52730;SDS011;38624;53.242;6.974;2024-02-26T03:32:29;11.98;;;7.22;;
52730;SDS011;38624;53.242;6.974;2024-02-26T03:34:55;10.40;;;5.73;;
52730;SDS011;38624;53.242;6.974;2024-02-26T03:37:21;11.20;;;6.70;;
52730;SDS011;38624;53.242;6.974;2024-02-26T03:39:47;9.17;;;6.47;;
52730;SDS011;38624;53.242;6.974;2024-02-26T03:42:13;15.23;;;7.20;;
52730;SDS011;38624;53.242;6.974;2024-02-26T03:44:39;11.32;;;6.72;;
52730;SDS011;38624;53.242;6.974;2024-02-26T03:47:05;10.47;;;6.67;;
52730;SDS011;38624;53.242;6.974;2024-02-26T03:49:31;13.30;;;6.63;;
52730;SDS011;38624;53.242;6.974;2024-02-26T03:51:57;14.27;;;7.10;;
52730;SDS011;38624;53.242;6.974;2024-02-26T03:54:23;14.03;;;7.67;;
52730;SDS011;38624;53.242;6.974;2024-02-26T03:56:50;12.80;;;7.07;;
52730;SDS011;38624;53.242;6.974;2024-02-26T03:59:16;9.63;;;6.63;;
52730;SDS011;38624;53.242;6.974;2024-02-26T04:01:45;8.80;;;5.93;;
52730;SDS011;38624;53.242;6.974;2024-02-26T04:04:14;10.27;;;5.97;;
52730;SDS011;38624;53.242;6.974;2024-02-26T04:06:47;11.88;;;6.72;;
52730;SDS011;38624;53.242;6.974;2024-02-26T04:09:14;8.77;;;5.33;;
52730;SDS011;38624;53.242;6.974;2024-02-26T04:11:40;10.93;;;5.85;;
52730;SDS011;38624;53.242;6.974;2024-02-26T04:14:06;9.57;;;6.07;;
52730;SDS011;38624;53.242;6.974;2024-02-26T04:16:34;12.07;;;6.57;;
52730;SDS011;38624;53.242;6.974;2024-02-26T04:19:00;10.27;;;6.00;;
52730;SDS011;38624;53.242;6.974;2024-02-26T04:21:27;10.75;;;6.25;;
52730;SDS011;38624;53.242;6.974;2024-02-26T04:23:53;9.63;;;6.37;;
52730;SDS011;38624;53.242;6.974;2024-02-26T04:26:20;10.10;;;6.30;;
52730;SDS011;38624;53.242;6.974;2024-02-26T04:28:47;11.57;;;5.70;;
52730;SDS011;38624;53.242;6.974;2024-02-26T04:31:13;9.13;;;5.80;;
52730;SDS011;38624;53.242;6.974;2024-02-26T04:33:39;8.23;;;5.10;;
52730;SDS011;38624;53.242;6.974;2024-02-26T04:36:11;11.83;;;5.80;;
52730;SDS011;38624;53.242;6.974;2024-02-26T04:38:37;6.77;;;4.53;;
52730;SDS011;38624;53.242;6.974;2024-02-26T04:41:04;8.57;;;4.67;;
52730;SDS011;38624;53.242;6.974;2024-02-26T04:43:30;7.90;;;5.03;;
52730;SDS011;38624;53.242;6.974;2024-02-26T04:45:56;11.13;;;5.37;;
52730;SDS011;38624;53.242;6.974;2024-02-26T04:48:22;7.87;;;4.70;;
52730;SDS011;38624;53.242;6.974;2024-02-26T04:50:48;7.23;;;4.20;;
52730;SDS011;38624;53.242;6.974;2024-02-26T04:53:14;4.93;;;3.33;;
52730;SDS011;38624;53.242;6.974;2024-02-26T04:55:40;8.05;;;4.93;;
52730;SDS011;38624;53.242;6.974;2024-02-26T04:58:06;8.67;;;4.50;;
52730;SDS011;38624;53.242;6.974;2024-02-26T05:00:35;7.47;;;4.53;;
52730;SDS011;38624;53.242;6.974;2024-02-26T05:03:01;7.33;;;4.23;;
52730;SDS011;38624;53.242;6.974;2024-02-26T05:05:27;7.73;;;4.50;;
52730;SDS011;38624;53.242;6.974;2024-02-26T05:07:53;7.20;;;4.60;;
52730;SDS011;38624;53.242;6.974;2024-02-26T05:10:19;6.57;;;4.20;;
52730;SDS011;38624;53.242;6.974;2024-02-26T05:12:45;5.87;;;3.60;;
52730;SDS011;38624;53.242;6.974;2024-02-26T05:15:11;8.40;;;3.90;;
52730;SDS011;38624;53.242;6.974;2024-02-26T05:17:43;4.73;;;3.43;;
52730;SDS011;38624;53.242;6.974;2024-02-26T05:20:09;6.10;;;4.40;;
52730;SDS011;38624;53.242;6.974;2024-02-26T05:22:35;5.77;;;4.40;;
52730;SDS011;38624;53.242;6.974;2024-02-26T05:25:01;6.63;;;3.90;;
52730;SDS011;38624;53.242;6.974;2024-02-26T05:27:28;5.70;;;3.97;;
52730;SDS011;38624;53.242;6.974;2024-02-26T05:29:54;4.43;;;3.00;;
52730;SDS011;38624;53.242;6.974;2024-02-26T05:32:20;6.87;;;2.97;;
52730;SDS011;38624;53.242;6.974;2024-02-26T05:34:46;5.20;;;3.47;;
52730;SDS011;38624;53.242;6.974;2024-02-26T05:37:12;5.53;;;3.80;;
52730;SDS011;38624;53.242;6.974;2024-02-26T05:39:38;6.35;;;4.18;;
52730;SDS011;38624;53.242;6.974;2024-02-26T05:42:04;6.63;;;4.43;;
52730;SDS011;38624;53.242;6.974;2024-02-26T05:44:30;8.75;;;4.65;;
52730;SDS011;38624;53.242;6.974;2024-02-26T05:46:56;6.30;;;4.60;;
52730;SDS011;38624;53.242;6.974;2024-02-26T05:49:23;9.00;;;4.67;;
52730;SDS011;38624;53.242;6.974;2024-02-26T05:51:49;6.17;;;4.23;;
52730;SDS011;38624;53.242;6.974;2024-02-26T05:54:15;7.30;;;4.23;;
52730;SDS011;38624;53.242;6.974;2024-02-26T05:56:41;6.30;;;4.30;;
52730;SDS011;38624;53.242;6.974;2024-02-26T05:59:07;6.57;;;4.65;;
52730;SDS011;38624;53.242;6.974;2024-02-26T06:01:33;6.97;;;5.20;;
52730;SDS011;38624;53.242;6.974;2024-02-26T06:03:59;7.93;;;4.80;;
52730;SDS011;38624;53.242;6.974;2024-02-26T06:06:26;7.03;;;5.17;;
52730;SDS011;38624;53.242;6.974;2024-02-26T06:08:52;8.33;;;5.17;;
52730;SDS011;38624;53.242;6.974;2024-02-26T06:11:18;9.20;;;5.22;;
52730;SDS011;38624;53.242;6.974;2024-02-26T06:13:44;6.47;;;4.63;;
52730;SDS011;38624;53.242;6.974;2024-02-26T06:16:10;8.53;;;4.73;;
52730;SDS011;38624;53.242;6.974;2024-02-26T06:18:36;10.63;;;5.13;;
52730;SDS011;38624;53.242;6.974;2024-02-26T06:21:02;8.23;;;5.17;;
52730;SDS011;38624;53.242;6.974;2024-02-26T06:23:28;8.95;;;5.13;;
52730;SDS011;38624;53.242;6.974;2024-02-26T06:25:54;8.17;;;4.93;;
52730;SDS011;38624;53.242;6.974;2024-02-26T06:28:21;6.77;;;4.97;;
52730;SDS011;38624;53.242;6.974;2024-02-26T06:30:47;7.50;;;5.60;;
52730;SDS011;38624;53.242;6.974;2024-02-26T06:33:13;7.57;;;5.45;;
52730;SDS011;38624;53.242;6.974;2024-02-26T06:35:39;8.23;;;5.37;;
52730;SDS011;38624;53.242;6.974;2024-02-26T06:38:05;8.47;;;5.77;;
52730;SDS011;38624;53.242;6.974;2024-02-26T06:40:33;8.17;;;4.43;;
52730;SDS011;38624;53.242;6.974;2024-02-26T06:42:59;9.97;;;5.23;;
52730;SDS011;38624;53.242;6.974;2024-02-26T06:45:25;10.20;;;5.00;;
52730;SDS011;38624;53.242;6.974;2024-02-26T06:47:51;7.10;;;5.23;;
52730;SDS011;38624;53.242;6.974;2024-02-26T06:50:17;8.20;;;5.50;;
52730;SDS011;38624;53.242;6.974;2024-02-26T06:52:44;7.87;;;5.77;;
52730;SDS011;38624;53.242;6.974;2024-02-26T06:55:11;7.47;;;4.53;;
52730;SDS011;38624;53.242;6.974;2024-02-26T06:57:38;7.18;;;5.18;;
52730;SDS011;38624;53.242;6.974;2024-02-26T07:00:04;7.80;;;5.43;;
52730;SDS011;38624;53.242;6.974;2024-02-26T07:02:32;7.67;;;4.90;;
52730;SDS011;38624;53.242;6.974;2024-02-26T07:04:58;7.57;;;4.90;;
52730;SDS011;38624;53.242;6.974;2024-02-26T07:07:24;5.87;;;4.50;;
52730;SDS011;38624;53.242;6.974;2024-02-26T07:09:50;6.95;;;5.35;;
52730;SDS011;38624;53.242;6.974;2024-02-26T07:12:16;7.80;;;5.17;;
52730;SDS011;38624;53.242;6.974;2024-02-26T07:14:44;8.17;;;4.77;;
52730;SDS011;38624;53.242;6.974;2024-02-26T07:17:11;6.90;;;4.95;;
52730;SDS011;38624;53.242;6.974;2024-02-26T07:19:37;6.13;;;4.50;;
52730;SDS011;38624;53.242;6.974;2024-02-26T07:22:03;7.17;;;5.37;;
52730;SDS011;38624;53.242;6.974;2024-02-26T07:24:29;6.53;;;4.67;;
52730;SDS011;38624;53.242;6.974;2024-02-26T07:26:55;6.80;;;4.50;;
52730;SDS011;38624;53.242;6.974;2024-02-26T07:29:21;7.73;;;5.00;;
52730;SDS011;38624;53.242;6.974;2024-02-26T07:31:47;6.70;;;5.03;;
52730;SDS011;38624;53.242;6.974;2024-02-26T07:34:13;7.60;;;5.10;;
52730;SDS011;38624;53.242;6.974;2024-02-26T07:36:39;7.03;;;4.97;;
52730;SDS011;38624;53.242;6.974;2024-02-26T07:39:05;8.30;;;5.13;;
52730;SDS011;38624;53.242;6.974;2024-02-26T07:41:31;7.33;;;5.60;;
52730;SDS011;38624;53.242;6.974;2024-02-26T07:43:58;7.10;;;5.22;;
52730;SDS011;38624;53.242;6.974;2024-02-26T07:46:24;8.05;;;5.40;;
52730;SDS011;38624;53.242;6.974;2024-02-26T07:48:50;9.73;;;5.57;;
52730;SDS011;38624;53.242;6.974;2024-02-26T07:51:16;10.20;;;6.00;;
52730;SDS011;38624;53.242;6.974;2024-02-26T07:53:42;8.07;;;5.50;;
52730;SDS011;38624;53.242;6.974;2024-02-26T07:56:08;6.78;;;5.53;;
52730;SDS011;38624;53.242;6.974;2024-02-26T07:58:35;10.10;;;5.90;;
52730;SDS011;38624;53.242;6.974;2024-02-26T08:01:04;8.43;;;5.73;;
52730;SDS011;38624;53.242;6.974;2024-02-26T08:03:30;6.82;;;4.70;;
52730;SDS011;38624;53.242;6.974;2024-02-26T08:05:56;9.37;;;5.87;;
52730;SDS011;38624;53.242;6.974;2024-02-26T08:08:22;8.83;;;5.40;;
52730;SDS011;38624;53.242;6.974;2024-02-26T08:10:48;6.57;;;5.27;;
52730;SDS011;38624;53.242;6.974;2024-02-26T08:13:14;7.47;;;5.10;;
52730;SDS011;38624;53.242;6.974;2024-02-26T08:15:41;9.00;;;4.93;;
52730;SDS011;38624;53.242;6.974;2024-02-26T08:18:07;7.28;;;5.13;;
52730;SDS011;38624;53.242;6.974;2024-02-26T08:20:33;6.23;;;4.83;;
52730;SDS011;38624;53.242;6.974;2024-02-26T08:22:59;6.40;;;4.43;;
52730;SDS011;38624;53.242;6.974;2024-02-26T08:25:25;7.80;;;5.20;;
52730;SDS011;38624;53.242;6.974;2024-02-26T08:27:52;11.65;;;4.80;;
52730;SDS011;38624;53.242;6.974;2024-02-26T08:30:18;6.93;;;4.87;;
52730;SDS011;38624;53.242;6.974;2024-02-26T08:32:44;8.45;;;4.85;;
52730;SDS011;38624;53.242;6.974;2024-02-26T08:35:11;5.93;;;4.03;;
52730;SDS011;38624;53.242;6.974;2024-02-26T08:37:37;8.30;;;5.20;;
52730;SDS011;38624;53.242;6.974;2024-02-26T08:40:03;5.67;;;4.10;;
52730;SDS011;38624;53.242;6.974;2024-02-26T08:42:29;8.10;;;5.18;;
52730;SDS011;38624;53.242;6.974;2024-02-26T08:44:56;11.35;;;5.28;;
52730;SDS011;38624;53.242;6.974;2024-02-26T08:47:25;10.87;;;5.10;;
52730;SDS011;38624;53.242;6.974;2024-02-26T08:49:51;7.78;;;4.75;;
52730;SDS011;38624;53.242;6.974;2024-02-26T08:52:17;7.30;;;4.70;;
52730;SDS011;38624;53.242;6.974;2024-02-26T08:54:43;6.37;;;3.90;;
52730;SDS011;38624;53.242;6.974;2024-02-26T08:57:09;7.20;;;3.53;;
52730;SDS011;38624;53.242;6.974;2024-02-26T08:59:35;8.23;;;4.10;;
52730;SDS011;38624;53.242;6.974;2024-02-26T09:02:02;7.50;;;4.47;;
52730;SDS011;38624;53.242;6.974;2024-02-26T09:04:28;5.55;;;3.70;;
52730;SDS011;38624;53.242;6.974;2024-02-26T09:06:54;6.40;;;3.50;;
52730;SDS011;38624;53.242;6.974;2024-02-26T09:09:20;6.97;;;4.40;;
52730;SDS011;38624;53.242;6.974;2024-02-26T09:11:47;6.43;;;4.10;;
52730;SDS011;38624;53.242;6.974;2024-02-26T09:14:17;5.20;;;3.90;;
52730;SDS011;38624;53.242;6.974;2024-02-26T09:16:43;6.07;;;3.70;;
52730;SDS011;38624;53.242;6.974;2024-02-26T09:19:09;4.77;;;3.47;;
52730;SDS011;38624;53.242;6.974;2024-02-26T09:21:35;5.97;;;3.70;;
52730;SDS011;38624;53.242;6.974;2024-02-26T09:24:02;5.17;;;3.50;;
52730;SDS011;38624;53.242;6.974;2024-02-26T09:26:28;6.90;;;3.13;;
52730;SDS011;38624;53.242;6.974;2024-02-26T09:28:54;3.83;;;2.58;;
52730;SDS011;38624;53.242;6.974;2024-02-26T09:31:20;4.70;;;3.00;;
52730;SDS011;38624;53.242;6.974;2024-02-26T09:33:46;4.70;;;3.20;;
52730;SDS011;38624;53.242;6.974;2024-02-26T09:36:12;4.35;;;3.30;;
52730;SDS011;38624;53.242;6.974;2024-02-26T09:38:38;4.07;;;3.13;;
52730;SDS011;38624;53.242;6.974;2024-02-26T09:41:05;4.97;;;2.83;;
52730;SDS011;38624;53.242;6.974;2024-02-26T09:43:34;4.43;;;3.00;;
52730;SDS011;38624;53.242;6.974;2024-02-26T09:46:01;5.43;;;3.10;;
52730;SDS011;38624;53.242;6.974;2024-02-26T09:48:28;5.82;;;3.10;;
52730;SDS011;38624;53.242;6.974;2024-02-26T09:50:54;3.90;;;2.85;;
52730;SDS011;38624;53.242;6.974;2024-02-26T09:53:21;5.63;;;3.27;;
52730;SDS011;38624;53.242;6.974;2024-02-26T09:55:47;5.97;;;3.00;;
52730;SDS011;38624;53.242;6.974;2024-02-26T09:58:13;4.15;;;2.63;;
52730;SDS011;38624;53.242;6.974;2024-02-26T10:00:43;3.37;;;2.30;;
52730;SDS011;38624;53.242;6.974;2024-02-26T10:03:13;4.00;;;2.80;;
52730;SDS011;38624;53.242;6.974;2024-02-26T10:05:41;5.50;;;2.13;;
52730;SDS011;38624;53.242;6.974;2024-02-26T10:08:08;4.03;;;2.30;;
52730;SDS011;38624;53.242;6.974;2024-02-26T10:10:34;5.33;;;2.80;;
52730;SDS011;38624;53.242;6.974;2024-02-26T10:13:02;4.75;;;2.90;;
52730;SDS011;38624;53.242;6.974;2024-02-26T10:15:35;3.63;;;2.53;;
52730;SDS011;38624;53.242;6.974;2024-02-26T10:18:05;3.83;;;2.40;;
52730;SDS011;38624;53.242;6.974;2024-02-26T10:20:32;4.57;;;2.77;;
52730;SDS011;38624;53.242;6.974;2024-02-26T10:22:58;5.20;;;2.83;;
52730;SDS011;38624;53.242;6.974;2024-02-26T10:25:28;4.63;;;2.73;;
52730;SDS011;38624;53.242;6.974;2024-02-26T10:27:57;3.27;;;2.37;;
52730;SDS011;38624;53.242;6.974;2024-02-26T10:30:27;4.30;;;2.90;;
52730;SDS011;38624;53.242;6.974;2024-02-26T10:32:53;4.80;;;2.17;;
52730;SDS011;38624;53.242;6.974;2024-02-26T10:35:20;3.67;;;1.90;;
52730;SDS011;38624;53.242;6.974;2024-02-26T10:37:47;3.63;;;2.55;;
52730;SDS011;38624;53.242;6.974;2024-02-26T10:40:13;2.67;;;1.92;;
52730;SDS011;38624;53.242;6.974;2024-02-26T10:42:40;3.33;;;2.42;;
52730;SDS011;38624;53.242;6.974;2024-02-26T10:45:07;4.40;;;2.58;;
52730;SDS011;38624;53.242;6.974;2024-02-26T10:47:37;4.00;;;2.60;;
52730;SDS011;38624;53.242;6.974;2024-02-26T10:50:03;4.50;;;3.50;;
52730;SDS011;38624;53.242;6.974;2024-02-26T10:52:34;5.93;;;2.50;;
52730;SDS011;38624;53.242;6.974;2024-02-26T10:55:01;5.10;;;2.40;;
52730;SDS011;38624;53.242;6.974;2024-02-26T10:57:29;3.20;;;2.20;;
52730;SDS011;38624;53.242;6.974;2024-02-26T10:59:57;3.90;;;2.37;;
52730;SDS011;38624;53.242;6.974;2024-02-26T11:02:23;4.13;;;2.30;;
52730;SDS011;38624;53.242;6.974;2024-02-26T11:04:50;3.40;;;2.45;;
52730;SDS011;38624;53.242;6.974;2024-02-26T11:07:16;3.65;;;2.25;;
52730;SDS011;38624;53.242;6.974;2024-02-26T11:09:43;2.35;;;2.00;;
52730;SDS011;38624;53.242;6.974;2024-02-26T11:12:12;3.70;;;2.30;;
52730;SDS011;38624;53.242;6.974;2024-02-26T11:14:46;3.73;;;2.30;;
52730;SDS011;38624;53.242;6.974;2024-02-26T11:17:12;3.57;;;2.47;;
52730;SDS011;38624;53.242;6.974;2024-02-26T11:19:38;3.80;;;2.80;;
52730;SDS011;38624;53.242;6.974;2024-02-26T11:22:06;4.87;;;3.03;;
52730;SDS011;38624;53.242;6.974;2024-02-26T11:24:33;4.13;;;2.47;;
52730;SDS011;38624;53.242;6.974;2024-02-26T11:27:00;4.32;;;2.58;;
52730;SDS011;38624;53.242;6.974;2024-02-26T11:29:29;6.13;;;3.00;;
52730;SDS011;38624;53.242;6.974;2024-02-26T11:31:59;6.80;;;3.43;;
52730;SDS011;38624;53.242;6.974;2024-02-26T11:34:25;4.90;;;3.07;;
52730;SDS011;38624;53.242;6.974;2024-02-26T11:36:52;5.63;;;3.20;;
52730;SDS011;38624;53.242;6.974;2024-02-26T11:39:19;4.22;;;3.08;;
52730;SDS011;38624;53.242;6.974;2024-02-26T11:41:46;6.18;;;3.22;;
52730;SDS011;38624;53.242;6.974;2024-02-26T11:44:12;5.50;;;4.00;;
52730;SDS011;38624;53.242;6.974;2024-02-26T11:46:39;5.80;;;3.80;;
52730;SDS011;38624;53.242;6.974;2024-02-26T11:51:51;6.22;;;3.78;;
52730;SDS011;38624;53.242;6.974;2024-02-26T11:57:02;10.73;;;5.37;;
52730;SDS011;38624;53.242;6.974;2024-02-26T11:59:37;6.70;;;3.77;;
52730;SDS011;38624;53.242;6.974;2024-02-26T12:02:03;8.00;;;4.50;;
52730;SDS011;38624;53.242;6.974;2024-02-26T12:04:30;6.35;;;4.05;;
52730;SDS011;38624;53.242;6.974;2024-02-26T12:06:57;6.60;;;4.57;;
52730;SDS011;38624;53.242;6.974;2024-02-26T12:09:39;7.05;;;4.90;;
52730;SDS011;38624;53.242;6.974;2024-02-26T12:12:06;8.33;;;5.10;;
52730;SDS011;38624;53.242;6.974;2024-02-26T12:16:59;8.00;;;4.63;;
52730;SDS011;38624;53.242;6.974;2024-02-26T12:19:26;7.68;;;4.90;;
52730;SDS011;38624;53.242;6.974;2024-02-26T12:21:53;8.07;;;5.18;;
52730;SDS011;38624;53.242;6.974;2024-02-26T12:24:20;7.75;;;5.03;;
52730;SDS011;38624;53.242;6.974;2024-02-26T12:26:46;8.40;;;4.95;;
52730;SDS011;38624;53.242;6.974;2024-02-26T12:29:12;8.33;;;4.93;;
52730;SDS011;38624;53.242;6.974;2024-02-26T12:31:39;9.15;;;5.63;;
52730;SDS011;38624;53.242;6.974;2024-02-26T12:36:31;7.63;;;4.83;;
52730;SDS011;38624;53.242;6.974;2024-02-26T12:38:59;10.30;;;5.83;;
52730;SDS011;38624;53.242;6.974;2024-02-26T12:41:27;9.63;;;6.03;;
52730;SDS011;38624;53.242;6.974;2024-02-26T12:43:55;8.57;;;5.43;;
52730;SDS011;38624;53.242;6.974;2024-02-26T12:46:21;8.57;;;5.40;;
52730;SDS011;38624;53.242;6.974;2024-02-26T12:48:48;8.03;;;5.27;;
52730;SDS011;38624;53.242;6.974;2024-02-26T12:51:14;8.40;;;6.22;;
52730;SDS011;38624;53.242;6.974;2024-02-26T12:53:41;9.45;;;6.03;;
52730;SDS011;38624;53.242;6.974;2024-02-26T12:56:08;6.47;;;4.22;;
52730;SDS011;38624;53.242;6.974;2024-02-26T12:58:35;8.93;;;5.65;;
52730;SDS011;38624;53.242;6.974;2024-02-26T13:01:03;7.95;;;5.57;;
52730;SDS011;38624;53.242;6.974;2024-02-26T13:03:30;8.38;;;5.28;;
52730;SDS011;38624;53.242;6.974;2024-02-26T13:05:56;10.20;;;6.28;;
52730;SDS011;38624;53.242;6.974;2024-02-26T13:08:23;11.77;;;6.23;;
52730;SDS011;38624;53.242;6.974;2024-02-26T13:10:49;8.68;;;5.32;;
52730;SDS011;38624;53.242;6.974;2024-02-26T13:13:16;8.82;;;5.28;;
52730;SDS011;38624;53.242;6.974;2024-02-26T13:15:43;9.77;;;6.32;;
52730;SDS011;38624;53.242;6.974;2024-02-26T13:18:13;11.18;;;6.07;;
52730;SDS011;38624;53.242;6.974;2024-02-26T13:20:39;11.83;;;5.87;;
52730;SDS011;38624;53.242;6.974;2024-02-26T13:23:06;8.13;;;4.57;;
52730;SDS011;38624;53.242;6.974;2024-02-26T13:28:15;10.95;;;5.60;;
52730;SDS011;38624;53.242;6.974;2024-02-26T13:30:49;10.03;;;5.67;;
52730;SDS011;38624;53.242;6.974;2024-02-26T13:33:16;12.57;;;7.80;;
52730;SDS011;38624;53.242;6.974;2024-02-26T13:35:42;10.70;;;5.80;;
52730;SDS011;38624;53.242;6.974;2024-02-26T13:38:09;12.70;;;7.87;;
52730;SDS011;38624;53.242;6.974;2024-02-26T13:40:37;14.57;;;7.83;;
52730;SDS011;38624;53.242;6.974;2024-02-26T13:43:04;12.17;;;7.03;;
52730;SDS011;38624;53.242;6.974;2024-02-26T13:45:30;16.27;;;9.48;;
52730;SDS011;38624;53.242;6.974;2024-02-26T13:48:01;11.73;;;6.50;;
52730;SDS011;38624;53.242;6.974;2024-02-26T13:50:28;15.03;;;9.07;;
52730;SDS011;38624;53.242;6.974;2024-02-26T13:52:54;12.60;;;7.00;;
52730;SDS011;38624;53.242;6.974;2024-02-26T13:55:21;10.85;;;6.18;;
52730;SDS011;38624;53.242;6.974;2024-02-26T13:57:51;13.15;;;6.22;;
52730;SDS011;38624;53.242;6.974;2024-02-26T14:00:19;14.40;;;7.83;;
52730;SDS011;38624;53.242;6.974;2024-02-26T14:02:45;10.50;;;6.25;;
52730;SDS011;38624;53.242;6.974;2024-02-26T14:05:11;12.05;;;5.82;;
52730;SDS011;38624;53.242;6.974;2024-02-26T14:07:38;16.92;;;8.48;;
52730;SDS011;38624;53.242;6.974;2024-02-26T14:10:04;13.50;;;8.15;;
52730;SDS011;38624;53.242;6.974;2024-02-26T14:12:31;13.18;;;7.25;;
52730;SDS011;38624;53.242;6.974;2024-02-26T14:14:57;12.75;;;7.40;;
52730;SDS011;38624;53.242;6.974;2024-02-26T14:17:25;14.48;;;7.70;;
52730;SDS011;38624;53.242;6.974;2024-02-26T14:19:52;10.07;;;6.35;;
52730;SDS011;38624;53.242;6.974;2024-02-26T14:22:18;16.88;;;8.85;;
52730;SDS011;38624;53.242;6.974;2024-02-26T14:24:44;11.63;;;6.30;;
52730;SDS011;38624;53.242;6.974;2024-02-26T14:27:10;12.00;;;5.10;;
52730;SDS011;38624;53.242;6.974;2024-02-26T14:29:41;11.77;;;6.67;;
52730;SDS011;38624;53.242;6.974;2024-02-26T14:32:08;10.95;;;6.35;;
52730;SDS011;38624;53.242;6.974;2024-02-26T14:34:34;10.10;;;6.20;;
52730;SDS011;38624;53.242;6.974;2024-02-26T14:37:01;8.73;;;5.82;;
52730;SDS011;38624;53.242;6.974;2024-02-26T14:39:27;14.85;;;7.43;;
52730;SDS011;38624;53.242;6.974;2024-02-26T14:41:54;13.15;;;6.65;;
52730;SDS011;38624;53.242;6.974;2024-02-26T14:44:20;10.23;;;5.78;;
52730;SDS011;38624;53.242;6.974;2024-02-26T14:46:46;10.47;;;6.23;;
52730;SDS011;38624;53.242;6.974;2024-02-26T14:49:15;12.00;;;6.93;;